Time;durP1;ratioP1;P1;durP2;ratioP2;P2;SDS_P1;SDS_P2;PMS_P1;PMS_P2;Temp;Humidity;BMP_temperature;BMP_pressure;BME280_temperature;BME280_humidity;BME280_pressure;Samples;Min_cycle;Max_cycle;Signal;HPM_P1;HPM_P2
2022/05/30 00:00:07;;;;;;;5.03;2.50;;;;;;;10.22;61.11;98993.78;339644;29;1068;-66
2022/05/30 00:00:21;;;;;;;4.55;2.42;;;;;;;10.19;61.46;98999.13;340731;29;1976;-66
2022/05/30 00:00:33;;;;;;;4.47;2.50;;;;;;;10.18;61.44;98998.28;339810;28;1906;-67
2022/05/30 00:00:45;;;;;;;5.35;2.47;;;;;;;10.20;61.48;98998.19;340763;29;1496;-67
2022/05/30 00:01:05;;;;;;;5.30;2.38;;;;;;;10.16;61.46;98999.22;340660;29;1170;-66
2022/05/30 00:01:21;;;;;;;5.18;2.42;;;;;;;10.16;61.85;99009.63;339681;29;1309;-66
2022/05/30 00:01:33;;;;;;;4.88;2.47;;;;;;;10.14;62.11;99001.06;340682;29;1309;-66
2022/05/30 00:01:46;;;;;;;5.05;2.50;;;;;;;10.15;62.30;98997.56;339889;29;1783;-66
2022/05/30 00:01:58;;;;;;;5.18;2.50;;;;;;;10.14;62.19;99001.06;340975;29;1921;-66
2022/05/30 00:02:11;;;;;;;4.28;2.40;;;;;;;10.11;62.08;98996.84;340765;29;1123;-66
2022/05/30 00:02:23;;;;;;;4.85;2.35;;;;;;;10.13;61.95;98994.19;340300;29;1321;-66
2022/05/30 00:02:35;;;;;;;4.97;2.38;;;;;;;10.11;61.99;98996.84;338637;29;1354;-66
2022/05/30 00:02:48;;;;;;;4.15;2.40;;;;;;;10.10;62.24;98999.50;339539;29;1841;-66
2022/05/30 00:03:00;;;;;;;3.85;2.30;;;;;;;10.09;61.98;98995.22;339415;29;1050;-66
2022/05/30 00:03:13;;;;;;;4.18;2.25;;;;;;;10.08;62.08;98990.91;339209;29;1903;-66
2022/05/30 00:03:25;;;;;;;4.53;2.28;;;;;;;10.08;61.80;98990.91;339279;29;2018;-67
2022/05/30 00:03:37;;;;;;;5.05;2.47;;;;;;;10.12;61.57;99002.88;339193;29;1809;-67
2022/05/30 00:03:50;;;;;;;4.53;2.47;;;;;;;10.11;61.53;99006.38;339640;29;1850;-66
2022/05/30 00:04:03;;;;;;;3.53;2.25;;;;;;;10.12;61.51;98995.06;339754;29;1060;-66
2022/05/30 00:04:15;;;;;;;3.10;2.30;;;;;;;10.13;61.84;98991.59;339862;29;1866;-66
2022/05/30 00:04:27;;;;;;;3.63;2.40;;;;;;;10.14;61.74;99001.06;339671;29;1220;-66
2022/05/30 00:04:39;;;;;;;3.47;2.38;;;;;;;10.15;61.73;98989.78;338955;29;1885;-66
2022/05/30 00:04:51;;;;;;;4.30;2.47;;;;;;;10.13;62.02;98999.38;338539;29;1798;-66
2022/05/30 00:05:03;;;;;;;4.20;2.50;;;;;;;10.11;62.12;98996.00;339543;29;1075;-66
2022/05/30 00:05:17;;;;;;;3.45;2.45;;;;;;;10.10;62.18;98996.91;339451;29;1059;-66
2022/05/30 00:05:30;;;;;;;4.05;2.40;;;;;;;10.10;61.98;98989.97;339790;29;1379;-66
2022/05/30 00:05:46;;;;;;;4.18;2.42;;;;;;;10.09;62.16;98998.66;338842;29;1811;-66
2022/05/30 00:05:58;;;;;;;4.82;2.42;;;;;;;10.07;62.21;98997.03;339785;29;1903;-66
2022/05/30 00:06:13;;;;;;;5.45;2.50;;;;;;;10.06;62.12;99003.13;340014;29;1059;-66
2022/05/30 00:06:29;;;;;;;5.68;2.55;;;;;;;10.05;62.14;98991.91;337820;29;1975;-66
2022/05/30 00:06:41;;;;;;;5.22;2.35;;;;;;;10.02;62.50;98997.22;339675;29;1791;-66
2022/05/30 00:06:53;;;;;;;3.90;2.28;;;;;;;10.04;62.34;98994.56;340024;29;1011;-66
2022/05/30 00:07:06;;;;;;;3.92;2.42;;;;;;;10.04;62.50;98994.56;339888;29;1126;-66
2022/05/30 00:07:18;;;;;;;4.43;2.55;;;;;;;10.02;62.51;98992.03;339634;29;1056;-66
2022/05/30 00:07:30;;;;;;;4.63;2.50;;;;;;;10.02;62.34;98998.97;339641;29;1280;-66
2022/05/30 00:07:42;;;;;;;4.15;2.55;;;;;;;9.99;62.32;98995.59;338660;29;1750;-66
2022/05/30 00:07:54;;;;;;;4.70;2.58;;;;;;;10.00;62.25;98992.09;339375;29;1907;-66
2022/05/30 00:08:07;;;;;;;4.70;2.47;;;;;;;9.99;62.63;98997.34;339398;29;1803;-66
2022/05/30 00:08:19;;;;;;;3.67;2.20;;;;;;;10.00;62.87;98994.69;338669;29;1046;-66
2022/05/30 00:08:31;;;;;;;2.78;2.22;;;;;;;10.00;62.63;98999.06;339458;29;1243;-66
2022/05/30 00:08:44;;;;;;;2.85;2.30;;;;;;;10.00;62.71;99002.47;339611;29;1913;-66
2022/05/30 00:08:56;;;;;;;3.88;2.38;;;;;;;10.00;62.63;98994.69;339757;29;1051;-66
2022/05/30 00:09:14;;;;;;;4.88;2.38;;;;;;;10.00;62.53;98994.69;339816;29;1077;-66
2022/05/30 00:09:26;;;;;;;4.93;2.40;;;;;;;9.99;62.36;98992.97;339300;29;1246;-66
2022/05/30 00:09:38;;;;;;;4.82;2.45;;;;;;;9.98;62.62;98991.31;338905;29;1820;-66
2022/05/30 00:09:50;;;;;;;4.47;2.40;;;;;;;9.98;62.89;98993.91;339588;29;1731;-66
2022/05/30 00:10:05;;;;;;;4.65;2.38;;;;;;;9.96;62.36;98993.13;339333;29;1822;-66
2022/05/30 00:10:19;;;;;;;3.33;2.25;;;;;;;9.96;62.51;98998.31;339545;29;1155;-66
2022/05/30 00:10:31;;;;;;;3.22;2.33;;;;;;;9.98;61.85;98993.91;339413;29;1268;-66
2022/05/30 00:10:43;;;;;;;3.78;2.50;;;;;;;9.99;61.98;98995.59;338524;29;2054;-66
2022/05/30 00:10:55;;;;;;;4.38;2.53;;;;;;;9.99;62.07;98990.38;339449;29;1913;-66
2022/05/30 00:11:10;;;;;;;3.70;2.50;;;;;;;9.99;62.10;98990.38;339719;29;1234;-66
2022/05/30 00:11:22;;;;;;;3.20;2.45;;;;;;;10.02;61.85;98988.56;339875;28;1571;-66
2022/05/30 00:11:36;;;;;;;3.30;2.40;;;;;;;10.03;61.59;98992.88;340482;29;3479;-66
2022/05/30 00:11:49;;;;;;;3.25;2.33;;;;;;;10.05;61.67;98991.06;338635;29;3148;-66
2022/05/30 00:12:02;;;;;;;3.17;2.40;;;;;;;10.07;61.57;98991.84;338808;29;1198;-66
2022/05/30 00:12:14;;;;;;;4.07;2.50;;;;;;;10.07;61.78;98986.66;338725;29;1100;-66
2022/05/30 00:12:26;;;;;;;4.68;2.58;;;;;;;10.07;61.93;98994.44;338827;29;1212;-66
2022/05/30 00:12:38;;;;;;;4.13;2.58;;;;;;;10.05;62.03;98985.88;339267;29;2088;-67
2022/05/30 00:12:50;;;;;;;3.05;2.40;;;;;;;10.05;62.36;98985.88;339691;29;1805;-66
2022/05/30 00:13:02;;;;;;;3.33;2.40;;;;;;;10.03;62.23;98992.88;339150;29;1539;-66
2022/05/30 00:13:14;;;;;;;4.82;2.40;;;;;;;9.99;62.37;98992.97;339477;29;1727;-66
2022/05/30 00:13:26;;;;;;;5.18;2.35;;;;;;;9.99;62.55;98995.59;340715;28;1261;-66
2022/05/30 00:13:39;;;;;;;4.93;2.33;;;;;;;10.00;62.29;98986.91;339088;29;1831;-66
2022/05/30 00:13:51;;;;;;;3.70;2.30;;;;;;;10.02;62.11;98991.16;338808;29;1479;-66
2022/05/30 00:14:03;;;;;;;3.85;2.40;;;;;;;10.03;62.13;98992.88;339952;29;1073;-66
2022/05/30 00:14:15;;;;;;;4.05;2.40;;;;;;;10.02;62.14;98992.03;339472;28;1605;-66
2022/05/30 00:14:28;;;;;;;3.80;2.40;;;;;;;9.98;62.48;98991.31;338500;29;1291;-66
2022/05/30 00:14:40;;;;;;;3.58;2.40;;;;;;;10.00;62.34;98993.84;338850;29;1803;-66
2022/05/30 00:14:52;;;;;;;4.60;2.58;;;;;;;9.99;62.31;98990.38;339318;29;1892;-66
2022/05/30 00:15:08;;;;;;;5.07;2.50;;;;;;;10.00;62.27;98989.50;337895;29;1857;-66
2022/05/30 00:15:21;;;;;;;3.97;2.30;;;;;;;10.01;62.29;98990.34;339675;29;1075;-66
2022/05/30 00:15:33;;;;;;;3.92;2.42;;;;;;;10.02;62.00;98993.78;339682;29;1365;-66
2022/05/30 00:15:45;;;;;;;4.05;2.55;;;;;;;10.03;62.05;98998.06;338845;29;1950;-67
2022/05/30 00:16:03;;;;;;;4.80;2.70;;;;;;;10.02;62.07;98991.16;339903;29;1863;-66
2022/05/30 00:16:18;;;;;;;5.60;2.65;;;;;;;10.01;62.22;98990.34;339994;29;1412;-67
2022/05/30 00:16:31;;;;;;;5.20;2.63;;;;;;;10.02;62.14;98993.78;338217;29;1669;-67
2022/05/30 00:16:43;;;;;;;4.85;2.80;;;;;;;10.02;61.74;98991.16;339718;29;1472;-67
2022/05/30 00:16:56;;;;;;;4.90;2.60;;;;;;;10.02;61.69;98991.16;339809;29;1275;-66
2022/05/30 00:17:08;;;;;;;5.50;2.45;;;;;;;10.01;61.89;98990.34;339867;29;1035;-66
2022/05/30 00:17:20;;;;;;;4.93;2.40;;;;;;;9.98;62.64;98988.72;339804;29;1053;-66
2022/05/30 00:17:32;;;;;;;4.38;2.50;;;;;;;9.95;62.49;98991.41;339374;29;1699;-66
2022/05/30 00:17:45;;;;;;;4.18;2.58;;;;;;;9.93;62.34;98990.63;338760;29;1857;-66
2022/05/30 00:17:57;;;;;;;4.13;2.70;;;;;;;9.92;62.13;98996.75;339796;29;1020;-66
2022/05/30 00:18:09;;;;;;;4.18;2.80;;;;;;;9.90;62.12;98993.38;339986;29;1042;-66
2022/05/30 00:18:21;;;;;;;3.88;2.80;;;;;;;9.89;62.29;98986.47;339963;29;1014;-66
2022/05/30 00:18:33;;;;;;;3.53;2.72;;;;;;;9.91;62.09;98989.03;339592;29;1309;-67
2022/05/30 00:18:45;;;;;;;4.07;2.90;;;;;;;9.89;62.33;98991.66;338019;29;1918;-67
2022/05/30 00:18:57;;;;;;;4.25;2.80;;;;;;;9.88;62.26;98987.41;339005;29;1575;-66
2022/05/30 00:19:09;;;;;;;3.67;2.47;;;;;;;9.86;62.61;98991.81;339976;28;1407;-67
2022/05/30 00:19:22;;;;;;;2.97;2.40;;;;;;;9.87;62.56;98988.28;339690;29;1175;-66
2022/05/30 00:19:38;;;;;;;3.15;2.58;;;;;;;9.86;62.61;98990.94;339537;29;1688;-66
2022/05/30 00:19:50;;;;;;;3.53;2.70;;;;;;;9.86;62.45;98986.63;339790;29;1672;-66
2022/05/30 00:20:04;;;;;;;4.63;2.75;;;;;;;9.88;62.38;98991.72;339293;29;1787;-66
2022/05/30 00:20:16;;;;;;;4.63;2.78;;;;;;;9.86;62.45;98989.22;339925;29;1222;-66
2022/05/30 00:20:28;;;;;;;4.55;2.45;;;;;;;9.86;62.54;98991.81;339574;29;1385;-66
2022/05/30 00:20:44;;;;;;;5.68;2.35;;;;;;;9.87;62.71;98988.28;338442;29;1876;-66
2022/05/30 00:20:57;;;;;;;4.13;2.28;;;;;;;9.87;62.72;98990.88;339722;29;1930;-66
2022/05/30 00:21:10;;;;;;;3.33;2.30;;;;;;;9.89;62.17;98991.66;339332;29;1781;-66
2022/05/30 00:21:23;;;;;;;3.28;2.40;;;;;;;9.88;62.31;98995.19;339876;29;1066;-66
2022/05/30 00:21:37;;;;;;;2.95;2.50;;;;;;;9.91;62.28;98992.44;340032;29;1054;-66
2022/05/30 00:21:49;;;;;;;3.25;2.50;;;;;;;9.91;62.61;98989.03;339245;29;1767;-66
2022/05/30 00:22:01;;;;;;;3.92;2.50;;;;;;;9.90;62.72;98993.38;339981;29;1572;-66
2022/05/30 00:22:14;;;;;;;4.13;2.50;;;;;;;9.90;62.23;98988.19;340269;28;1071;-66
2022/05/30 00:22:26;;;;;;;3.92;2.30;;;;;;;9.89;62.51;98990.84;339662;29;1431;-66
2022/05/30 00:22:38;;;;;;;3.67;2.28;;;;;;;9.87;62.81;98988.28;339231;29;1910;-67
2022/05/30 00:22:51;;;;;;;3.90;2.47;;;;;;;9.88;62.90;98990.00;338628;29;1644;-66
2022/05/30 00:23:04;;;;;;;4.32;2.58;;;;;;;9.89;62.79;98990.84;339029;29;1810;-66
2022/05/30 00:23:16;;;;;;;5.32;2.70;;;;;;;9.88;62.92;98990.00;339136;29;1571;-66
2022/05/30 00:23:29;;;;;;;5.10;2.60;;;;;;;9.90;62.95;98987.31;339362;29;1184;-66
2022/05/30 00:23:41;;;;;;;5.18;2.63;;;;;;;9.90;63.02;98988.19;338710;29;1826;-66
2022/05/30 00:23:53;;;;;;;5.25;2.65;;;;;;;9.90;62.85;98983.00;339555;29;1821;-66
2022/05/30 00:24:06;;;;;;;6.18;2.70;;;;;;;9.91;62.74;98983.84;339821;29;1047;-66
2022/05/30 00:24:18;;;;;;;5.05;2.63;;;;;;;9.91;62.70;98984.66;339211;29;1549;-66
2022/05/30 00:24:31;;;;;;;4.63;2.60;;;;;;;9.91;62.73;98994.22;339562;29;1642;-66
2022/05/30 00:24:44;;;;;;;3.55;2.55;;;;;;;9.90;62.44;98988.19;338737;29;1876;-66
2022/05/30 00:24:56;;;;;;;4.10;2.53;;;;;;;9.89;62.75;98991.66;338941;29;1911;-66
2022/05/30 00:25:08;;;;;;;3.85;2.50;;;;;;;9.87;62.79;98993.47;339825;29;1655;-66
2022/05/30 00:25:20;;;;;;;3.92;2.53;;;;;;;9.86;62.93;98986.63;339759;29;1039;-66
2022/05/30 00:25:33;;;;;;;4.25;2.67;;;;;;;9.89;63.03;98989.06;339554;29;1325;-66
2022/05/30 00:25:45;;;;;;;3.90;2.60;;;;;;;9.89;62.88;98986.47;339067;29;1889;-66
2022/05/30 00:25:57;;;;;;;4.88;2.50;;;;;;;9.88;62.98;98989.13;339747;29;1876;-66
2022/05/30 00:26:09;;;;;;;5.25;2.45;;;;;;;9.88;62.95;98987.41;339976;29;1196;-66
2022/05/30 00:26:22;;;;;;;4.65;2.38;;;;;;;9.87;63.19;98995.25;339774;29;1209;-66
2022/05/30 00:26:34;;;;;;;5.47;2.58;;;;;;;9.86;63.21;98988.34;339093;29;2174;-66
2022/05/30 00:26:46;;;;;;;5.88;2.63;;;;;;;9.85;63.29;98991.88;339056;29;1929;-66
2022/05/30 00:26:58;;;;;;;4.00;2.50;;;;;;;9.84;63.28;98988.44;339542;29;1197;-66
2022/05/30 00:27:11;;;;;;;3.63;2.60;;;;;;;9.85;63.24;98992.69;339874;29;1230;-66
2022/05/30 00:27:23;;;;;;;3.60;2.60;;;;;;;9.85;63.43;98984.91;339963;29;1010;-66
2022/05/30 00:27:35;;;;;;;4.57;2.58;;;;;;;9.86;63.18;98984.03;338555;29;3629;-66
2022/05/30 00:27:47;;;;;;;4.45;2.60;;;;;;;9.85;63.28;98995.31;337449;29;2936;-66
2022/05/30 00:27:59;;;;;;;4.28;2.70;;;;;;;9.87;63.32;98992.66;339733;29;1667;-66
2022/05/30 00:28:11;;;;;;;3.70;2.78;;;;;;;9.83;63.30;98989.31;339991;29;1074;-66
2022/05/30 00:28:24;;;;;;;3.70;2.67;;;;;;;9.82;63.34;98985.06;339989;29;1303;-66
2022/05/30 00:28:36;;;;;;;4.03;2.63;;;;;;;9.83;63.07;98994.53;339309;29;1519;-66
2022/05/30 00:28:49;;;;;;;4.40;2.70;;;;;;;9.84;63.25;98988.44;339495;29;1644;-66
2022/05/30 00:29:00;;;;;;;5.13;2.72;;;;;;;9.84;63.16;98987.56;339610;29;1114;-66
2022/05/30 00:29:13;;;;;;;5.22;2.83;;;;;;;9.83;63.18;98991.91;339811;29;1099;-66
2022/05/30 00:29:27;;;;;;;5.65;2.95;;;;;;;9.83;62.67;98985.91;338917;29;1791;-66
2022/05/30 00:29:39;;;;;;;4.78;2.70;;;;;;;9.80;63.15;98981.69;338104;29;1845;-66
2022/05/30 00:29:51;;;;;;;3.85;2.53;;;;;;;9.81;63.48;98993.72;339380;29;1755;-66
2022/05/30 00:30:04;;;;;;;3.47;2.50;;;;;;;9.81;63.02;98988.53;339267;29;1880;-66
2022/05/30 00:30:16;;;;;;;3.95;2.50;;;;;;;9.80;63.12;98985.13;339813;29;1279;-66
2022/05/30 00:30:28;;;;;;;4.15;2.60;;;;;;;9.78;62.90;98988.69;339859;29;1350;-67
2022/05/30 00:30:40;;;;;;;3.45;2.55;;;;;;;9.80;62.63;98986.88;339087;29;1857;-67
2022/05/30 00:30:52;;;;;;;3.67;2.60;;;;;;;9.80;63.07;98981.69;339644;29;1774;-67
2022/05/30 00:31:08;;;;;;;3.70;2.90;;;;;;;9.80;63.32;98984.28;339320;29;1013;-66
2022/05/30 00:31:21;;;;;;;4.28;2.90;;;;;;;9.79;63.37;98982.56;339480;29;1027;-66
2022/05/30 00:31:35;;;;;;;4.95;2.88;;;;;;;9.78;63.41;98993.88;339655;29;1307;-66
2022/05/30 00:31:47;;;;;;;5.78;3.00;;;;;;;9.76;63.57;98985.31;339019;29;2072;-66
2022/05/30 00:31:59;;;;;;;5.57;2.90;;;;;;;9.77;63.20;98981.78;339682;29;1960;-66
2022/05/30 00:32:11;;;;;;;5.18;2.67;;;;;;;9.75;63.24;98979.25;339639;29;2084;-66
2022/05/30 00:32:24;;;;;;;4.28;2.60;;;;;;;9.76;63.42;98985.31;338992;29;1888;-66
2022/05/30 00:32:36;;;;;;;3.33;2.50;;;;;;;9.74;63.70;98985.34;339465;29;1901;-66
2022/05/30 00:32:48;;;;;;;3.50;2.70;;;;;;;9.75;63.85;98986.19;339701;29;1104;-66
2022/05/30 00:33:00;;;;;;;3.47;2.83;;;;;;;9.75;63.72;98978.41;340205;28;1805;-66
2022/05/30 00:33:13;;;;;;;4.90;2.90;;;;;;;9.74;63.79;98987.13;339983;28;1754;-67
2022/05/30 00:33:25;;;;;;;5.70;2.80;;;;;;;9.74;63.45;98977.56;340845;29;1278;-66
2022/05/30 00:33:37;;;;;;;6.15;2.65;;;;;;;9.76;63.68;98987.91;340520;29;1839;-66
2022/05/30 00:33:50;;;;;;;4.68;2.58;;;;;;;9.76;63.48;98980.13;340263;29;1217;-66
2022/05/30 00:34:03;;;;;;;3.13;2.47;;;;;;;9.75;63.74;98978.41;340422;29;1828;-66
2022/05/30 00:34:15;;;;;;;3.65;2.63;;;;;;;9.74;63.89;98982.75;340975;29;1060;-66
2022/05/30 00:34:27;;;;;;;4.72;2.70;;;;;;;9.76;63.90;98974.94;340710;29;1295;-66
2022/05/30 00:34:40;;;;;;;5.60;2.83;;;;;;;9.77;63.61;98971.41;340454;29;1780;-66
2022/05/30 00:34:52;;;;;;;4.78;2.80;;;;;;;9.78;63.18;98978.31;340624;29;1621;-66
2022/05/30 00:35:04;;;;;;;4.47;2.72;;;;;;;9.77;63.13;98980.03;340815;29;1200;-66
2022/05/30 00:35:16;;;;;;;4.32;2.70;;;;;;;9.77;63.36;98982.63;340282;29;1059;-66
2022/05/30 00:35:29;;;;;;;4.97;2.63;;;;;;;9.78;63.15;98978.31;339690;29;1217;-66
2022/05/30 00:35:42;;;;;;;5.18;2.60;;;;;;;9.79;62.96;98974.78;338986;29;1778;-66
2022/05/30 00:35:56;;;;;;;4.88;2.67;;;;;;;9.80;63.39;98976.50;338496;29;1895;-66
2022/05/30 00:36:09;;;;;;;4.05;2.63;;;;;;;9.82;63.26;98985.06;339772;29;1795;-66
2022/05/30 00:36:20;;;;;;;4.15;2.60;;;;;;;9.83;62.66;98980.69;341069;28;1197;-66
2022/05/30 00:36:33;;;;;;;4.50;2.65;;;;;;;9.84;62.43;98978.06;339191;28;1905;-66
2022/05/30 00:36:45;;;;;;;4.63;2.55;;;;;;;9.84;62.58;98979.78;338991;29;1554;-66
2022/05/30 00:36:58;;;;;;;3.78;2.58;;;;;;;9.86;62.45;98976.25;339564;29;1075;-66
2022/05/30 00:37:10;;;;;;;4.18;2.65;;;;;;;9.87;62.33;98977.06;339801;29;1035;-66
2022/05/30 00:37:22;;;;;;;4.10;2.65;;;;;;;9.87;62.34;98977.91;339780;29;1010;-66
2022/05/30 00:37:34;;;;;;;4.32;2.70;;;;;;;9.88;62.17;98977.03;339560;29;1352;-66
2022/05/30 00:37:46;;;;;;;3.83;2.60;;;;;;;9.89;62.21;98978.69;338719;29;1837;-66
2022/05/30 00:37:58;;;;;;;3.55;2.53;;;;;;;9.88;62.56;98973.56;339319;29;1905;-67
2022/05/30 00:38:10;;;;;;;3.13;2.20;;;;;;;9.86;62.85;98976.25;338491;29;1024;-66
2022/05/30 00:38:22;;;;;;;3.00;2.40;;;;;;;9.87;63.00;98972.72;338478;29;2405;-66
2022/05/30 00:38:34;;;;;;;3.13;2.50;;;;;;;9.85;62.88;98971.94;339801;29;1546;-66
2022/05/30 00:38:46;;;;;;;3.17;2.53;;;;;;;9.85;63.25;98974.53;338832;29;1919;-66
2022/05/30 00:38:58;;;;;;;4.07;2.60;;;;;;;9.85;63.23;98979.72;339706;29;1917;-66
2022/05/30 00:39:10;;;;;;;4.30;2.70;;;;;;;9.85;63.19;98979.72;339907;29;1100;-67
2022/05/30 00:39:22;;;;;;;5.72;2.78;;;;;;;9.85;63.08;98969.34;339227;29;1629;-66
2022/05/30 00:39:34;;;;;;;5.25;2.70;;;;;;;9.86;63.01;98976.25;339490;29;2022;-66
2022/05/30 00:39:46;;;;;;;4.03;2.70;;;;;;;9.86;62.99;98978.84;339622;29;1122;-66
2022/05/30 00:39:58;;;;;;;3.17;2.53;;;;;;;9.86;63.16;98971.03;339615;29;1987;-66
2022/05/30 00:40:10;;;;;;;5.40;2.70;;;;;;;9.85;63.03;98969.34;338987;29;2195;-66
2022/05/30 00:40:22;;;;;;;6.75;2.72;;;;;;;9.84;63.25;98972.84;339704;29;1980;-66
2022/05/30 00:40:36;;;;;;;6.28;2.80;;;;;;;9.82;63.09;98974.69;339620;29;1211;-66
2022/05/30 00:40:48;;;;;;;5.03;2.72;;;;;;;9.84;63.32;98970.25;339573;29;1903;-66
2022/05/30 00:41:00;;;;;;;4.30;2.80;;;;;;;9.84;62.75;98972.84;339893;29;1024;-66
2022/05/30 00:41:12;;;;;;;5.20;2.95;;;;;;;9.86;62.59;98980.56;339839;29;1053;-66
2022/05/30 00:41:26;;;;;;;5.00;2.70;;;;;;;9.85;62.20;98969.34;339956;29;1116;-66
2022/05/30 00:41:38;;;;;;;4.63;2.60;;;;;;;9.86;62.27;98971.03;338268;29;1827;-66
2022/05/30 00:41:50;;;;;;;4.15;2.60;;;;;;;9.87;62.22;98972.72;339802;29;1983;-66
2022/05/30 00:42:13;;;;;;;3.60;2.53;;;;;;;9.88;62.36;98973.56;339440;29;1084;-66
2022/05/30 00:42:26;;;;;;;4.35;2.65;;;;;;;9.86;62.33;98971.03;339851;29;1376;-66
2022/05/30 00:42:38;;;;;;;5.07;2.63;;;;;;;9.86;61.97;98971.03;339307;29;1719;-66
2022/05/30 00:42:50;;;;;;;4.30;2.50;;;;;;;9.88;62.07;98968.38;338599;29;1790;-66
2022/05/30 00:43:25;;;;;;;3.78;2.47;;;;;;;9.87;62.21;98970.13;338610;29;1262;-66
2022/05/30 00:43:40;;;;;;;5.32;2.60;;;;;;;9.90;61.67;98969.16;338218;29;1660;-66
2022/05/30 00:43:52;;;;;;;5.15;2.45;;;;;;;9.91;61.68;98973.44;338612;29;1743;-66
2022/05/30 00:44:04;;;;;;;5.18;2.50;;;;;;;9.89;62.05;98967.47;340264;29;1204;-66
2022/05/30 00:44:16;;;;;;;4.70;2.53;;;;;;;9.88;62.19;98968.38;340918;28;1056;-66
2022/05/30 00:44:28;;;;;;;4.65;2.72;;;;;;;9.87;62.68;98967.53;340366;28;1385;-66
2022/05/30 00:44:44;;;;;;;4.95;2.70;;;;;;;9.87;62.99;98970.13;338959;29;1787;-67
2022/05/30 00:44:57;;;;;;;5.57;2.80;;;;;;;9.88;62.35;98964.03;338830;29;2021;-66
2022/05/30 00:45:09;;;;;;;5.53;2.90;;;;;;;9.85;62.67;98964.16;338867;29;1752;-66
2022/05/30 00:45:22;;;;;;;4.80;2.80;;;;;;;9.85;62.59;98964.16;339628;29;1192;-66
2022/05/30 00:45:33;;;;;;;4.25;2.67;;;;;;;9.85;62.44;98969.34;339748;29;1278;-66
2022/05/30 00:45:45;;;;;;;3.42;2.50;;;;;;;9.86;62.48;98971.03;338626;29;1809;-66
2022/05/30 00:46:00;;;;;;;3.80;2.50;;;;;;;9.85;62.56;98969.34;339713;29;1903;-66
2022/05/30 00:46:15;;;;;;;3.92;2.63;;;;;;;9.85;62.59;98968.50;339625;29;928;-66
2022/05/30 00:46:28;;;;;;;4.18;2.47;;;;;;;9.86;62.39;98975.38;338911;29;1711;-66
2022/05/30 00:46:40;;;;;;;4.40;2.35;;;;;;;9.84;62.09;98967.66;339420;29;1883;-66
2022/05/30 00:46:52;;;;;;;6.13;2.60;;;;;;;9.83;62.50;98971.16;339670;29;1067;-66
2022/05/30 00:47:04;;;;;;;5.43;2.67;;;;;;;9.82;63.24;98968.63;339639;29;1232;-66
2022/05/30 00:47:19;;;;;;;5.05;2.60;;;;;;;9.82;62.81;98969.47;338145;29;1589;-67
2022/05/30 00:47:31;;;;;;;4.38;2.55;;;;;;;9.81;63.05;98965.19;338796;29;1789;-66
2022/05/30 00:47:43;;;;;;;4.43;2.70;;;;;;;9.82;63.23;98963.41;339291;29;1709;-66
2022/05/30 00:47:55;;;;;;;4.82;2.88;;;;;;;9.82;62.96;98969.47;339652;29;1324;-66
2022/05/30 00:48:08;;;;;;;4.13;2.67;;;;;;;9.77;63.02;98966.22;339521;29;1904;-66
2022/05/30 00:48:24;;;;;;;3.80;2.50;;;;;;;9.74;62.85;98968.94;338455;29;1193;-66
2022/05/30 00:48:42;;;;;;;5.40;2.60;;;;;;;9.75;62.77;98957.66;338381;29;1113;-66
2022/05/30 00:49:00;;;;;;;5.60;2.60;;;;;;;9.73;62.99;98969.84;338582;29;1834;-66
2022/05/30 00:49:13;;;;;;;4.47;2.80;;;;;;;9.72;62.79;98961.22;339721;29;1314;-66
2022/05/30 00:49:25;;;;;;;4.60;2.72;;;;;;;9.72;62.74;98963.81;339503;29;1276;-66
2022/05/30 00:49:40;;;;;;;4.40;2.42;;;;;;;9.73;62.52;98964.66;339341;29;1805;-66
2022/05/30 00:49:55;;;;;;;4.00;2.38;;;;;;;9.72;62.26;98963.81;339702;29;1263;-66
2022/05/30 00:50:08;;;;;;;3.25;2.28;;;;;;;9.71;62.50;98969.06;339632;29;994;-66
2022/05/30 00:50:20;;;;;;;3.65;2.15;;;;;;;9.69;62.45;98965.69;339825;29;1670;-66
2022/05/30 00:50:32;;;;;;;3.25;2.20;;;;;;;9.70;62.44;98969.94;339710;29;1302;-66
2022/05/30 00:50:44;;;;;;;3.08;2.42;;;;;;;9.68;62.63;98966.56;338657;29;1762;-66
2022/05/30 00:51:04;;;;;;;3.15;2.60;;;;;;;9.68;62.59;98966.56;338560;29;1968;-66
2022/05/30 00:51:30;;;;;;;3.88;2.35;;;;;;;9.64;62.65;98968.47;339749;29;1297;-66
2022/05/30 00:51:47;;;;;;;3.20;2.28;;;;;;;9.62;62.43;98964.22;337917;29;1793;-66
2022/05/30 00:52:05;;;;;;;2.80;2.40;;;;;;;9.57;62.85;98970.44;339318;29;1825;-66
2022/05/30 00:52:28;;;;;;;3.45;2.45;;;;;;;9.54;63.23;98969.75;338317;29;1039;-66
2022/05/30 00:52:43;;;;;;;5.05;2.65;;;;;;;9.45;63.55;98970.91;339333;29;1902;-66
2022/05/30 00:52:59;;;;;;;5.45;2.85;;;;;;;9.41;63.73;98966.75;339601;28;1407;-67
2022/05/30 00:53:12;;;;;;;5.30;3.00;;;;;;;9.42;63.84;98967.59;338529;29;1035;-66
2022/05/30 00:53:26;;;;;;;6.13;2.97;;;;;;;9.39;64.07;98971.16;339564;29;1632;-66
2022/05/30 00:53:44;;;;;;;7.00;2.83;;;;;;;9.33;63.84;98968.81;338337;29;1064;-66
2022/05/30 00:53:57;;;;;;;6.22;2.97;;;;;;;9.27;64.41;98971.63;338453;29;1059;-66
2022/05/30 00:54:12;;;;;;;4.90;2.90;;;;;;;9.26;64.46;98968.19;338272;29;1322;-66
2022/05/30 00:54:32;;;;;;;4.85;2.88;;;;;;;9.25;64.38;98968.25;338204;29;1051;-66
2022/05/30 00:54:52;;;;;;;4.32;2.90;;;;;;;9.18;64.53;98963.31;338539;29;1758;-66
2022/05/30 00:55:17;;;;;;;4.30;2.80;;;;;;;9.15;64.73;98963.41;338986;29;1039;-66
2022/05/30 00:55:29;;;;;;;4.25;3.00;;;;;;;9.14;64.60;98966.09;339535;29;1404;-66
2022/05/30 00:55:43;;;;;;;3.97;2.97;;;;;;;9.14;64.65;98966.09;338777;29;1794;-66
2022/05/30 00:55:57;;;;;;;3.55;2.70;;;;;;;9.17;64.90;98961.59;339649;29;1816;-66
2022/05/30 00:56:10;;;;;;;3.80;2.72;;;;;;;9.19;64.73;98961.53;338798;29;1900;-66
2022/05/30 00:56:27;;;;;;;5.57;2.90;;;;;;;9.22;64.50;98965.78;339801;29;1055;-66
2022/05/30 00:56:43;;;;;;;6.55;2.90;;;;;;;9.22;64.39;98965.78;339094;29;1821;-65
2022/05/30 00:56:59;;;;;;;5.20;2.88;;;;;;;9.24;64.46;98962.22;339284;29;1897;-66
2022/05/30 00:57:20;;;;;;;4.30;2.80;;;;;;;9.27;63.95;98961.25;339687;29;1086;-66
2022/05/30 00:57:33;;;;;;;3.75;2.63;;;;;;;9.26;64.29;98964.78;339569;29;1320;-66
2022/05/30 00:57:47;;;;;;;3.15;2.80;;;;;;;9.27;64.11;98963.84;339000;29;2513;-66
2022/05/30 00:58:01;;;;;;;4.28;3.10;;;;;;;9.27;64.11;98961.25;339680;29;1957;-66
2022/05/30 00:58:17;;;;;;;4.93;3.08;;;;;;;9.28;64.20;98958.63;339479;29;1048;-66
2022/05/30 00:58:34;;;;;;;4.60;2.97;;;;;;;9.30;63.91;98958.56;338957;29;1170;-66
2022/05/30 00:58:50;;;;;;;4.90;3.00;;;;;;;9.31;63.75;98963.66;338697;29;2356;-66
2022/05/30 00:59:03;;;;;;;4.80;2.83;;;;;;;9.30;64.11;98966.34;339129;29;866;-66
2022/05/30 00:59:16;;;;;;;4.75;2.83;;;;;;;9.30;63.92;98958.56;339800;29;1030;-66
2022/05/30 00:59:28;;;;;;;4.28;2.83;;;;;;;9.32;64.17;98964.53;339579;29;1326;-66
2022/05/30 00:59:40;;;;;;;3.80;2.70;;;;;;;9.34;63.92;98960.13;339145;29;2071;-66
2022/05/30 00:59:52;;;;;;;3.90;2.47;;;;;;;9.34;64.06;98957.53;339417;29;1694;-66
2022/05/30 01:00:19;;;;;;;5.13;2.80;;;;;;;9.31;64.48;98963.66;339461;29;1092;-66
2022/05/30 01:00:31;;;;;;;4.53;3.00;;;;;;;9.33;64.73;98961.03;338964;29;1708;-66
2022/05/30 01:00:43;;;;;;;4.72;2.97;;;;;;;9.31;64.64;98957.66;339486;29;1012;-66
2022/05/30 01:00:56;;;;;;;4.30;3.00;;;;;;;9.30;64.58;98956.81;338783;29;1559;-66
2022/05/30 01:01:08;;;;;;;4.35;2.88;;;;;;;9.31;64.12;98958.47;339497;29;1473;-66
2022/05/30 01:01:20;;;;;;;4.22;2.85;;;;;;;9.32;64.22;98956.75;336990;29;4684;-66
2022/05/30 01:01:33;;;;;;;4.57;2.90;;;;;;;9.32;64.50;98965.38;339418;29;1248;-66
2022/05/30 01:01:46;;;;;;;5.20;3.08;;;;;;;9.31;64.54;98957.66;338455;29;2163;-66
2022/05/30 01:01:58;;;;;;;5.18;3.05;;;;;;;9.30;64.46;98955.97;339023;29;1936;-66
2022/05/30 01:02:12;;;;;;;4.90;3.20;;;;;;;9.28;64.24;98952.59;339607;29;1112;-66
2022/05/30 01:02:28;;;;;;;4.45;3.28;;;;;;;9.28;64.29;98962.97;339506;29;1886;-66
2022/05/30 01:02:41;;;;;;;4.25;3.00;;;;;;;9.27;64.42;98961.25;338452;29;1067;-66
2022/05/30 01:06:32;;;;;;;5.28;2.70;;;;;;;9.34;63.96;98957.53;338830;29;1279;-66
2022/05/30 01:06:46;;;;;;;6.00;2.88;;;;;;;9.35;64.24;98956.63;338683;29;1763;-66
2022/05/30 01:06:59;;;;;;;5.07;3.03;;;;;;;9.35;64.36;98954.03;338585;29;1063;-66
2022/05/30 01:07:11;;;;;;;4.70;3.08;;;;;;;9.33;64.51;98951.50;338909;29;1781;-66
2022/05/30 01:07:23;;;;;;;5.10;3.03;;;;;;;9.32;64.72;98951.56;339828;29;1055;-66
2022/05/30 01:07:37;;;;;;;4.78;2.90;;;;;;;9.34;64.68;98952.34;338678;29;1758;-66
2022/05/30 01:07:49;;;;;;;4.13;2.90;;;;;;;9.31;64.65;98949.88;339061;29;1773;-66
2022/05/30 01:08:02;;;;;;;4.10;2.90;;;;;;;9.31;64.58;98957.66;338917;29;1918;-66
2022/05/30 01:08:14;;;;;;;3.40;2.90;;;;;;;9.30;64.21;98950.78;339609;29;1084;-66